createdAt,value
2019-05-13T00:01:30.288Z,6.30
2019-05-13T00:04:03.527Z,6.20
2019-05-13T00:06:34.870Z,6.20
2019-05-13T00:09:06.856Z,6.20
2019-05-13T00:11:38.108Z,6.20
2019-05-13T00:14:09.096Z,6.30
2019-05-13T00:16:40.928Z,6.20
2019-05-13T00:19:14.250Z,6.20
2019-05-13T00:21:45.970Z,6.10
2019-05-13T00:24:16.077Z,6.10
2019-05-13T00:26:48.829Z,6.20
2019-05-13T00:29:19.359Z,6.20
2019-05-13T00:31:50.607Z,6.30
2019-05-13T00:34:21.605Z,6.30
2019-05-13T00:37:07.418Z,6.30
2019-05-13T00:39:24.775Z,6.30
2019-05-13T00:41:57.517Z,6.30
2019-05-13T00:44:27.918Z,6.30
2019-05-13T00:46:58.178Z,6.30
2019-05-13T00:49:28.292Z,6.20
2019-05-13T00:51:58.381Z,6.20
2019-05-13T00:54:29.396Z,6.20
2019-05-13T00:56:59.712Z,6.10
2019-05-13T00:59:29.808Z,6.10
2019-05-13T01:02:03.576Z,6.00
2019-05-13T01:04:34.445Z,5.90
2019-05-13T01:07:06.098Z,5.70
2019-05-13T01:09:36.178Z,5.50
2019-05-13T01:12:08.443Z,5.20
2019-05-13T01:14:38.597Z,5.10
2019-05-13T01:17:09.899Z,4.80
2019-05-13T01:19:40.041Z,4.70
2019-05-13T01:22:13.522Z,4.70
2019-05-13T01:24:47.587Z,4.70
2019-05-13T01:27:18.509Z,4.60
2019-05-13T01:29:48.638Z,4.50
2019-05-13T01:32:18.820Z,4.40
2019-05-13T01:34:48.927Z,4.30
2019-05-13T01:37:23.368Z,4.20
2019-05-13T01:39:54.080Z,4.10
2019-05-13T01:42:25.435Z,4.10
2019-05-13T01:44:58.904Z,4.10
2019-05-13T01:47:30.787Z,4.10
2019-05-13T01:50:03.806Z,4.00
2019-05-13T01:52:34.520Z,4.00
2019-05-13T01:55:07.184Z,3.90
2019-05-13T01:57:37.496Z,3.90
2019-05-13T02:00:10.800Z,3.90
2019-05-13T02:02:40.897Z,3.90
2019-05-13T02:05:11.003Z,3.90
2019-05-13T02:07:54.547Z,3.90
2019-05-13T02:10:15.602Z,4.00
2019-05-13T02:12:48.949Z,4.00
2019-05-13T02:15:19.986Z,4.00
2019-05-13T02:17:50.926Z,4.00
2019-05-13T02:20:24.787Z,4.00
2019-05-13T02:22:55.145Z,4.00
2019-05-13T02:25:26.074Z,4.00
2019-05-13T02:27:57.261Z,4.00
2019-05-13T02:30:28.492Z,3.90
2019-05-13T02:33:02.406Z,4.00
2019-05-13T02:35:32.530Z,3.90
2019-05-13T02:38:17.631Z,3.90
2019-05-13T02:40:35.356Z,3.90
2019-05-13T02:43:06.525Z,3.90
2019-05-13T02:45:36.900Z,3.80
2019-05-13T02:48:06.965Z,3.80
2019-05-13T02:50:38.194Z,3.80
2019-05-13T02:53:08.355Z,3.80
2019-05-13T02:55:38.841Z,3.90
2019-05-13T02:58:12.297Z,3.90
2019-05-13T03:00:44.054Z,3.80
2019-05-13T03:03:14.937Z,3.70
2019-05-13T03:05:45.053Z,3.60
2019-05-13T03:08:38.518Z,3.60
2019-05-13T03:10:54.209Z,3.60
2019-05-13T03:13:26.018Z,3.60
2019-05-13T03:16:15.082Z,3.60
2019-05-13T03:18:45.527Z,3.70
2019-05-13T03:21:15.629Z,3.60
2019-05-13T03:23:46.809Z,3.60
2019-05-13T03:26:16.924Z,3.70
2019-05-13T03:28:47.961Z,3.60
2019-05-13T03:31:18.160Z,3.60
2019-05-13T03:33:48.565Z,3.60
2019-05-13T03:36:25.099Z,3.50
2019-05-13T03:39:05.280Z,3.40
2019-05-13T03:41:32.727Z,3.30
2019-05-13T03:44:03.734Z,3.30
2019-05-13T03:46:37.710Z,3.20
2019-05-13T03:49:13.911Z,3.20
2019-05-13T03:51:48.864Z,3.10
2019-05-13T03:54:39.315Z,3.10
2019-05-13T03:57:12.646Z,3.10
2019-05-13T03:59:45.466Z,3.10
2019-05-13T04:02:17.206Z,3.00
2019-05-13T04:04:47.311Z,3.00
2019-05-13T04:07:17.953Z,3.00
2019-05-13T04:09:52.322Z,2.90
2019-05-13T04:12:22.941Z,2.90
2019-05-13T04:14:55.038Z,2.90
2019-05-13T04:17:25.240Z,3.00
2019-05-13T04:19:56.681Z,3.10
2019-05-13T04:22:27.387Z,3.20
2019-05-13T04:24:57.648Z,3.30
2019-05-13T04:27:28.164Z,3.40
2019-05-13T04:29:58.910Z,3.40
2019-05-13T04:32:33.180Z,3.30
2019-05-13T04:35:03.733Z,3.40
2019-05-13T04:37:33.242Z,3.50
2019-05-13T04:40:06.249Z,3.60
2019-05-13T04:42:37.334Z,3.60
2019-05-13T04:45:08.124Z,3.60
2019-05-13T04:47:38.283Z,3.70
2019-05-13T04:50:08.611Z,3.70
2019-05-13T04:52:42.084Z,3.70
2019-05-13T04:55:13.370Z,3.80
2019-05-13T04:57:44.477Z,3.80
2019-05-13T05:00:17.022Z,3.80
2019-05-13T05:03:03.405Z,4.00
2019-05-13T05:06:16.649Z,4.20
2019-05-13T05:09:12.324Z,4.40
2019-05-13T05:12:17.416Z,4.40
2019-05-13T05:15:32.248Z,4.60
2019-05-13T05:18:41.896Z,4.70
2019-05-13T05:21:21.683Z,4.80
2019-05-13T05:24:13.933Z,5.00
2019-05-13T05:27:34.256Z,5.20
2019-05-13T05:30:22.972Z,5.40
2019-05-13T05:33:28.550Z,5.60
2019-05-13T05:36:13.443Z,5.80
2019-05-13T05:39:13.404Z,6.00
2019-05-13T05:41:46.955Z,6.30
2019-05-13T05:44:18.114Z,6.50
2019-05-13T05:46:51.505Z,6.60
2019-05-13T05:49:24.484Z,6.80
2019-05-13T05:52:02.385Z,7.00
2019-05-13T05:54:36.319Z,7.10
2019-05-13T05:57:08.099Z,7.30
2019-05-13T05:59:41.816Z,7.40
2019-05-13T06:02:15.315Z,7.60
2019-05-13T06:04:51.947Z,7.70
2019-05-13T06:07:22.330Z,7.70
2019-05-13T06:09:54.125Z,7.80
2019-05-13T06:12:24.927Z,7.80
2019-05-13T06:14:55.238Z,7.90
2019-05-13T06:17:26.869Z,7.90
2019-05-13T06:19:58.165Z,8.00
2019-05-13T06:22:28.463Z,8.10
2019-05-13T06:25:01.279Z,8.20
2019-05-13T06:27:31.714Z,8.20
2019-05-13T06:30:04.011Z,8.20
2019-05-13T06:32:34.273Z,8.30
2019-05-13T06:35:07.661Z,8.40
2019-05-13T06:37:37.773Z,8.50
2019-05-13T06:40:08.515Z,8.60
2019-05-13T06:42:38.648Z,8.70
2019-05-13T06:45:09.169Z,8.80
2019-05-13T06:47:41.336Z,8.90
2019-05-13T06:50:11.815Z,9.00
2019-05-13T06:52:42.600Z,9.10
2019-05-13T06:55:14.162Z,9.10
2019-05-13T06:57:44.216Z,9.30
2019-05-13T07:00:14.524Z,9.20
2019-05-13T07:02:46.044Z,9.10
2019-05-13T07:05:16.126Z,9.10
2019-05-13T07:07:46.928Z,9.10
2019-05-13T07:10:18.092Z,9.20
2019-05-13T07:12:48.208Z,9.40
2019-05-13T07:15:18.401Z,9.50
2019-05-13T07:17:48.488Z,9.70
2019-05-13T07:20:22.335Z,9.80
2019-05-13T07:22:55.040Z,9.90
2019-05-13T07:25:26.201Z,10.00
2019-05-13T07:27:56.663Z,10.10
2019-05-13T07:30:42.667Z,10.20
2019-05-13T07:33:14.537Z,10.20
2019-05-13T07:35:46.552Z,10.20
2019-05-13T07:38:22.013Z,10.20
2019-05-13T07:40:57.308Z,10.40
2019-05-13T07:43:28.763Z,10.50
2019-05-13T07:46:02.132Z,10.70
2019-05-13T07:48:34.330Z,10.80
2019-05-13T07:51:06.638Z,10.90
2019-05-13T07:53:37.234Z,11.00
2019-05-13T07:56:11.774Z,11.10
2019-05-13T07:58:42.762Z,11.30
2019-05-13T08:01:14.961Z,11.30
2019-05-13T08:03:45.573Z,11.40
2019-05-13T08:06:16.055Z,11.50
2019-05-13T08:08:47.401Z,11.50
2019-05-13T08:11:18.924Z,11.60
2019-05-13T08:13:51.489Z,11.70
2019-05-13T08:16:22.337Z,11.80
2019-05-13T08:18:53.001Z,11.90
2019-05-13T08:21:23.110Z,11.90
2019-05-13T08:23:53.604Z,12.00
2019-05-13T08:26:24.597Z,12.10
2019-05-13T08:29:01.557Z,12.10
2019-05-13T08:31:26.490Z,12.30
2019-05-13T08:33:56.628Z,12.40
2019-05-13T08:36:26.972Z,12.50
2019-05-13T08:38:57.125Z,12.70
2019-05-13T08:41:27.201Z,12.70
2019-05-13T08:43:58.427Z,12.70
2019-05-13T08:46:28.588Z,12.60
2019-05-13T08:48:58.989Z,12.70
2019-05-13T08:51:31.343Z,12.80
2019-05-13T08:54:02.403Z,13.00
2019-05-13T08:56:32.852Z,13.10
2019-05-13T08:59:03.265Z,13.10
2019-05-13T09:01:35.379Z,13.20
2019-05-13T09:04:05.531Z,13.20
2019-05-13T09:06:41.871Z,13.20
2019-05-13T09:09:11.736Z,13.30
2019-05-13T09:11:57.373Z,13.20
2019-05-13T09:14:32.106Z,13.30
2019-05-13T09:17:02.313Z,13.40
2019-05-13T09:19:32.690Z,13.50
2019-05-13T09:22:08.766Z,13.50
2019-05-13T09:24:38.880Z,13.50
2019-05-13T09:27:12.015Z,13.60
2019-05-13T09:29:42.681Z,13.80
2019-05-13T09:32:18.304Z,13.80
2019-05-13T09:34:48.660Z,13.80
2019-05-13T09:37:18.808Z,14.00
2019-05-13T09:39:51.580Z,14.20
2019-05-13T09:42:25.893Z,14.20
2019-05-13T09:45:02.143Z,14.30
2019-05-13T09:47:32.347Z,14.40
2019-05-13T09:50:04.658Z,14.40
2019-05-13T09:52:35.056Z,14.40
2019-05-13T09:55:21.130Z,14.40
2019-05-13T09:57:41.558Z,14.50
2019-05-13T10:00:13.078Z,14.40
2019-05-13T10:02:45.280Z,14.20
2019-05-13T10:05:15.338Z,14.10
2019-05-13T10:07:45.434Z,14.00
2019-05-13T10:10:16.032Z,14.00
2019-05-13T10:13:07.446Z,13.80
2019-05-13T10:15:22.187Z,13.90
2019-05-13T10:18:08.033Z,14.00
2019-05-13T10:20:46.949Z,13.90
2019-05-13T10:23:18.006Z,14.00
2019-05-13T10:25:52.799Z,14.10
2019-05-13T10:28:26.053Z,14.10
2019-05-13T10:30:59.594Z,14.00
2019-05-13T10:33:31.922Z,14.00
2019-05-13T10:36:04.523Z,13.90
2019-05-13T10:38:35.051Z,14.00
2019-05-13T10:41:05.410Z,14.20
2019-05-13T10:43:40.095Z,14.30
2019-05-13T10:46:07.677Z,14.40
2019-05-13T10:48:41.664Z,14.40
2019-05-13T10:53:58.993Z,14.80
2019-05-13T10:56:32.739Z,15.20
2019-05-13T10:59:03.984Z,15.20
2019-05-13T11:04:14.032Z,15.10
2019-05-13T11:06:45.308Z,15.20
2019-05-13T11:09:15.933Z,15.40
2019-05-13T11:11:52.874Z,15.60
2019-05-13T11:14:24.258Z,15.90
2019-05-13T11:16:56.287Z,16.00
2019-05-13T11:19:32.570Z,15.90
2019-05-13T11:21:58.826Z,16.00
2019-05-13T11:24:29.018Z,16.40
2019-05-13T11:27:02.856Z,16.80
2019-05-13T11:29:36.019Z,17.00
2019-05-13T11:32:09.071Z,17.10
2019-05-13T11:34:41.923Z,17.20
2019-05-13T11:37:22.349Z,16.90
2019-05-13T11:39:51.885Z,16.80
2019-05-13T11:42:22.847Z,16.80
2019-05-13T11:44:53.959Z,16.70
2019-05-13T11:47:25.412Z,16.40
2019-05-13T11:49:58.697Z,16.10
2019-05-13T11:52:31.032Z,16.20
2019-05-13T11:55:03.210Z,16.20
2019-05-13T11:57:33.763Z,16.20
2019-05-13T12:00:06.181Z,16.00
2019-05-13T12:02:36.507Z,16.00
2019-05-13T12:05:09.098Z,15.80
2019-05-13T12:07:40.205Z,15.80
2019-05-13T12:10:22.950Z,15.90
2019-05-13T12:12:55.386Z,16.00
2019-05-13T12:15:33.614Z,16.20
2019-05-13T12:18:02.783Z,16.50
2019-05-13T12:20:34.854Z,16.50
2019-05-13T12:23:08.640Z,16.40
2019-05-13T12:25:38.838Z,16.40
2019-05-13T12:28:11.377Z,16.20
2019-05-13T12:33:35.015Z,15.80
2019-05-13T12:36:11.643Z,15.90
2019-05-13T12:38:44.276Z,16.00
2019-05-13T12:41:14.860Z,16.20
2019-05-13T12:43:53.910Z,16.40
2019-05-13T12:46:26.371Z,16.70
2019-05-13T12:48:57.964Z,16.70
2019-05-13T12:51:32.685Z,16.80
2019-05-13T12:54:03.837Z,17.20
2019-05-13T12:56:42.370Z,17.10
2019-05-13T12:59:14.720Z,17.00
2019-05-13T13:01:51.902Z,17.00
2019-05-13T13:04:24.358Z,16.90
2019-05-13T13:06:57.859Z,17.10
2019-05-13T13:09:27.322Z,17.30
2019-05-13T13:12:03.419Z,17.30
2019-05-13T13:14:39.215Z,17.80
2019-05-13T13:17:06.442Z,18.00
2019-05-13T13:19:36.632Z,18.00
2019-05-13T13:22:12.966Z,17.50
2019-05-13T13:24:50.814Z,17.00
2019-05-13T13:27:25.770Z,17.00
2019-05-13T13:30:17.636Z,17.20
2019-05-13T13:32:54.950Z,18.50
2019-05-13T13:35:23.015Z,18.70
2019-05-13T13:37:54.914Z,18.40
2019-05-13T13:40:29.743Z,18.30
2019-05-13T13:42:58.610Z,17.80
2019-05-13T13:45:36.743Z,17.10
2019-05-13T13:48:04.370Z,16.80
2019-05-13T13:50:36.616Z,17.00
2019-05-13T13:53:08.525Z,18.20
2019-05-13T13:55:43.353Z,20.00
2019-05-13T13:58:14.289Z,21.00
2019-05-13T14:01:00.705Z,20.30
2019-05-13T14:03:19.471Z,20.40
2019-05-13T14:05:54.144Z,20.10
2019-05-13T14:08:26.503Z,21.40
2019-05-13T14:10:57.840Z,24.10
2019-05-13T14:13:32.382Z,26.00
2019-05-13T14:16:03.366Z,25.60
2019-05-13T14:18:33.545Z,24.40
2019-05-13T14:21:03.940Z,23.20
2019-05-13T14:23:37.830Z,23.70
2019-05-13T14:26:07.449Z,25.80
2019-05-13T14:28:42.037Z,27.60
2019-05-13T14:33:44.107Z,25.50
2019-05-13T14:36:16.212Z,25.80
2019-05-13T14:38:52.766Z,26.60
2019-05-13T14:41:23.377Z,27.30
2019-05-13T14:43:54.500Z,28.60
2019-05-13T14:46:43.168Z,29.20
2019-05-13T14:49:01.661Z,29.20
2019-05-13T14:51:32.484Z,28.50
2019-05-13T14:54:09.443Z,28.20
2019-05-13T14:56:41.830Z,29.20
2019-05-13T14:59:12.571Z,29.00
2019-05-13T15:02:01.380Z,29.50
2019-05-13T15:04:43.279Z,28.90
2019-05-13T15:07:21.657Z,27.80
2019-05-13T15:09:57.348Z,27.30
2019-05-13T15:12:29.148Z,27.00
2019-05-13T15:15:01.473Z,26.90
2019-05-13T15:17:35.827Z,25.60
2019-05-13T15:20:12.533Z,26.40
2019-05-13T15:22:45.458Z,27.30
2019-05-13T15:25:21.539Z,26.70
2019-05-13T15:27:52.907Z,26.80
2019-05-13T15:30:32.439Z,28.40
2019-05-13T15:33:03.025Z,27.90
2019-05-13T15:35:41.898Z,26.50
2019-05-13T15:38:14.628Z,25.30
2019-05-13T15:41:07.065Z,24.90
2019-05-13T15:43:42.561Z,23.00
2019-05-13T15:46:17.133Z,23.60
2019-05-13T15:48:47.273Z,23.10
2019-05-13T15:51:17.468Z,22.10
2019-05-13T15:53:48.115Z,22.80
2019-05-13T15:56:18.483Z,24.80
2019-05-13T15:58:49.222Z,26.10
2019-05-13T16:01:19.361Z,24.70
2019-05-13T16:03:51.954Z,23.00
2019-05-13T16:06:21.393Z,22.20
2019-05-13T16:08:52.035Z,22.40
2019-05-13T16:11:22.454Z,22.10
2019-05-13T16:13:53.784Z,21.60
2019-05-13T16:16:23.912Z,20.70
2019-05-13T16:18:54.044Z,21.40
2019-05-13T16:21:27.217Z,22.10
2019-05-13T16:23:58.893Z,23.10
2019-05-13T16:26:33.606Z,23.30
2019-05-13T16:29:03.841Z,21.90
2019-05-13T16:31:37.707Z,20.30
2019-05-13T16:34:13.732Z,19.00
2019-05-13T16:36:44.329Z,18.20
2019-05-13T16:39:16.606Z,18.60
2019-05-13T16:41:47.662Z,18.60
2019-05-13T16:44:17.784Z,18.50
2019-05-13T16:46:47.867Z,20.10
2019-05-13T16:49:23.289Z,21.70
2019-05-13T16:51:53.915Z,23.20
2019-05-13T16:54:24.193Z,24.80
2019-05-13T16:56:56.015Z,25.00
2019-05-13T16:59:27.860Z,24.00
2019-05-13T17:02:01.901Z,24.40
2019-05-13T17:04:32.272Z,24.10
2019-05-13T17:07:03.246Z,23.00
2019-05-13T17:09:33.661Z,21.60
2019-05-13T17:12:03.767Z,20.30
2019-05-13T17:14:34.344Z,19.00
2019-05-13T17:17:04.925Z,18.50
2019-05-13T17:19:35.063Z,18.10
2019-05-13T17:22:06.771Z,17.80
2019-05-13T17:24:38.527Z,17.50
2019-05-13T17:27:12.149Z,17.00
2019-05-13T17:29:44.445Z,16.50
2019-05-13T17:32:19.348Z,16.20
2019-05-13T17:34:51.420Z,16.00
2019-05-13T17:37:22.248Z,15.90
2019-05-13T17:39:57.290Z,15.80
2019-05-13T17:42:27.438Z,15.60
2019-05-13T17:44:58.707Z,15.50
2019-05-13T17:47:31.119Z,15.50
2019-05-13T17:50:01.334Z,15.50
2019-05-13T17:52:33.234Z,15.50
2019-05-13T17:55:05.964Z,15.30
2019-05-13T17:57:44.011Z,15.20
2019-05-13T18:00:14.983Z,15.10
2019-05-13T18:02:46.003Z,14.90
2019-05-13T18:05:18.420Z,14.80
2019-05-13T18:07:48.693Z,14.80
2019-05-13T18:10:22.636Z,14.70
2019-05-13T18:12:55.393Z,14.60
2019-05-13T18:15:27.160Z,14.60
2019-05-13T18:18:01.462Z,14.50
2019-05-13T18:20:41.572Z,14.40
2019-05-13T18:23:12.165Z,14.30
2019-05-13T18:25:43.258Z,14.20
2019-05-13T18:28:27.653Z,14.10
2019-05-13T18:30:46.094Z,14.00
2019-05-13T18:33:18.421Z,13.90
2019-05-13T18:35:52.418Z,13.80
2019-05-13T18:38:25.158Z,13.70
2019-05-13T18:40:56.753Z,13.60
2019-05-13T18:43:27.434Z,13.50
2019-05-13T18:46:02.018Z,13.50
2019-05-13T18:48:36.302Z,13.40
2019-05-13T18:51:08.199Z,13.40
2019-05-13T18:53:42.735Z,13.30
2019-05-13T18:56:15.704Z,13.30
2019-05-13T18:58:46.989Z,13.20
2019-05-13T19:01:17.452Z,13.20
2019-05-13T19:03:51.778Z,13.00
2019-05-13T19:06:31.608Z,12.90
2019-05-13T19:09:05.772Z,12.80
2019-05-13T19:11:44.481Z,12.70
2019-05-13T19:14:16.441Z,12.60
2019-05-13T19:17:18.695Z,12.50
2019-05-13T19:19:54.520Z,12.50
2019-05-13T19:22:51.801Z,12.30
2019-05-13T19:25:32.952Z,12.30
2019-05-13T19:28:22.567Z,12.10
2019-05-13T19:31:28.297Z,12.00
2019-05-13T19:37:24.559Z,11.90
2019-05-13T19:40:06.768Z,11.80
2019-05-13T19:43:02.560Z,11.80
2019-05-13T19:45:44.558Z,11.70
2019-05-13T19:48:18.421Z,11.60
2019-05-13T19:50:52.115Z,11.50
2019-05-13T19:53:37.620Z,11.40
2019-05-13T19:56:49.101Z,11.40
2019-05-13T19:59:33.399Z,11.30
2019-05-13T20:02:33.117Z,11.20
2019-05-13T20:05:04.536Z,11.20
2019-05-13T20:07:54.684Z,11.10
2019-05-13T20:10:26.809Z,11.00
2019-05-13T20:13:04.159Z,11.00
2019-05-13T20:20:18.003Z,10.90
2019-05-13T20:23:16.301Z,10.90
2019-05-13T20:26:01.541Z,10.90
2019-05-13T20:29:38.755Z,10.90
2019-05-13T20:32:11.490Z,10.90
2019-05-13T20:38:36.253Z,10.80
2019-05-13T20:41:08.994Z,10.60
2019-05-13T20:43:44.865Z,10.40
2019-05-13T20:46:18.796Z,10.20
2019-05-13T20:48:54.073Z,10.10
2019-05-13T20:51:26.384Z,9.90
2019-05-13T20:53:56.471Z,9.80
2019-05-13T20:56:27.738Z,9.70
2019-05-13T20:58:57.855Z,9.60
2019-05-13T21:01:27.937Z,9.50
2019-05-13T21:03:58.046Z,9.40
2019-05-13T21:06:28.180Z,9.30
2019-05-13T21:08:58.257Z,9.30
2019-05-13T21:14:06.594Z,9.10
2019-05-13T21:19:12.591Z,9.00
2019-05-13T21:21:43.132Z,9.00
2019-05-13T21:24:13.280Z,8.90
2019-05-13T21:26:46.393Z,8.80
2019-05-13T21:29:18.525Z,8.70
2019-05-13T21:31:49.865Z,8.70
2019-05-13T21:34:21.361Z,8.60
2019-05-13T21:36:52.557Z,8.50
2019-05-13T21:39:22.667Z,8.40
2019-05-13T21:41:52.751Z,8.40
2019-05-13T21:44:23.166Z,8.30
2019-05-13T21:46:53.214Z,8.20
2019-05-13T21:49:25.319Z,8.20
2019-05-13T21:51:55.386Z,8.10
2019-05-13T21:54:25.625Z,8.20
2019-05-13T21:56:56.996Z,8.10
2019-05-13T21:59:27.115Z,8.10
2019-05-13T22:01:57.212Z,8.10
2019-05-13T22:04:33.126Z,8.20
2019-05-13T22:07:03.269Z,8.20
2019-05-13T22:09:33.776Z,8.30
2019-05-13T22:12:09.421Z,8.30
2019-05-13T22:14:41.167Z,8.30
2019-05-13T22:17:12.291Z,8.30
2019-05-13T22:19:42.729Z,8.30
2019-05-13T22:22:14.028Z,8.40
2019-05-13T22:24:44.241Z,8.40
2019-05-13T22:27:14.360Z,8.40
2019-05-13T22:29:46.154Z,8.40
2019-05-13T22:32:17.314Z,8.30
2019-05-13T22:34:47.406Z,8.30
2019-05-13T22:37:17.668Z,8.30
2019-05-13T22:39:47.805Z,8.30
2019-05-13T22:42:17.878Z,8.30
2019-05-13T22:44:48.000Z,8.40
2019-05-13T22:47:18.090Z,8.40
2019-05-13T22:49:48.497Z,8.40
2019-05-13T22:52:18.585Z,8.40
2019-05-13T22:54:49.034Z,8.40
2019-05-13T22:59:55.291Z,8.50
2019-05-13T23:02:25.429Z,8.40
2019-05-13T23:04:55.571Z,8.40
2019-05-13T23:07:25.717Z,8.40
2019-05-13T23:09:55.771Z,8.40
2019-05-13T23:12:25.954Z,8.30
2019-05-13T23:14:56.514Z,8.30
2019-05-13T23:17:26.771Z,8.30
2019-05-13T23:19:56.935Z,8.20
2019-05-13T23:22:27.401Z,7.60
2019-05-13T23:25:01.638Z,7.00
2019-05-13T23:27:36.934Z,6.60
2019-05-13T23:30:08.967Z,6.30
2019-05-13T23:32:39.886Z,5.90
2019-05-13T23:35:13.206Z,5.70
2019-05-13T23:37:45.573Z,5.60
2019-05-13T23:40:16.944Z,5.40
2019-05-13T23:42:51.987Z,5.30
2019-05-13T23:45:23.220Z,5.10
2019-05-13T23:47:55.271Z,5.00
2019-05-13T23:50:25.749Z,4.90
2019-05-13T23:52:55.848Z,5.00
2019-05-13T23:55:26.016Z,4.90
2019-05-13T23:57:56.123Z,4.70
